Tiempo atmosférico en la estación meteorológica de Vejer De La Frontera, Cádiz (160 m.)



Fecha
DESCASC
Temp. máxima en grados centígrados (hora)
DESCASC
Temp. mínima en grados centígrados (hora)
DESCASC
Temp. media en grados centígrados
DESCASC
Racha de viento máxima en m/sg (hora)
DESCASC
Velocidad máxima media en intervalos de 10 minutos(hora)
DESCASC
Precipitaciones diarias en mm
DESCASC
Precipitaciones de 00:00 a 06:00 en mm
DESCASC
Precipitaciones de 06:00 a 12:00 en mm
DESCASC
Precipitaciones de 12:00 a 18:00 en mm
DESCASC
Precipitaciones de 18:00 a 24:00 en mm
DESCASC
28-12-2019 16.9 (14:30) 13 (00:00) 14.9 16.39 (23:20) 6.94 (10:10) 0 0 0 0 0
21-01-2020 15.2 (14:40) 7.9 (00:00) 11.5 6.67 (00:40) 2.78 (15:10) 0 0 0 0 0
20-01-2020 12.8 (14:40) 6.2 (00:00) 9.5 8.89 (00:20) 3.61 (08:40) 0 0 0 0 0
17-01-2020 18 (14:30) 12.4 (00:00) 15.2 5.56 (14:40) 3.33 (13:40) 0 0 0 0 0
16-01-2020 19.3 (13:20) 10.2 (00:00) 14.7 6.11 (13:40) 3.61 (13:40) 0 0 0 0 0
15-01-2020 18.3 (15:20) 10.9 (00:00) 14.6 8.61 (14:30) 4.72 (14:40) 0 0 0 0 0
14-01-2020 17.3 (15:00) 10.1 (00:00) 13.7 5.56 (13:40) 3.33 (17:00) 0 0 0 0 0
13-01-2020 18 (14:20) 9.5 (00:00) 13.8 6.94 (11:20) 3.61 (11:40) 0 0 0 0 0
12-01-2020 18.2 (16:20) 9.9 (00:00) 14.1 7.5 (01:50) 3.33 (01:20) 0 0 0 0 0
11-01-2020 18.3 (14:00) 10.1 (00:00) 14.2 9.17 (14:00) 4.17 (15:50) 0 0 0 0 0
10-01-2020 15.3 (16:20) 9.5 (00:00) 12.4 7.5 (22:00) 3.89 (22:20) 0 0 0 0 0
09-01-2020 18.3 (16:10) 10.5 (00:00) 14.4 6.94 (01:20) 3.33 (16:40) 0 0 0 0 0
07-01-2020 17.8 (15:00) 9.7 (00:00) 13.7 10 (10:20) 5.28 (10:20) 0 0 0 0 0
27-12-2019 18 (14:10) 13.6 (00:00) 15.8 18.33 (11:30) 8.33 (13:10) 0 0 0 0 0
29-12-2019 16.5 (14:10) 12.4 (00:00) 14.4 15.28 (12:30) 6.67 (14:20) 0 0 0 0 0
30-12-2019 16.9 (15:00) 12 (00:00) 14.4 25 (17:10) 6.39 (11:20) 0 0 0 0 0
31-12-2019 16.6 (15:00) 11.7 (00:00) 14.2 14.72 (15:50) 6.11 (11:50) 0 0 0 0 0
01-01-2020 19.2 (15:20) 11.2 (00:00) 15.2 9.17 (01:50) 3.89 (00:10) 0 0 0 0 0
02-01-2020 19 (15:00) 10.3 (00:00) 14.7 6.67 (12:10) 2.78 (11:20) 0 0 0 0 0
03-01-2020 17.1 (15:30) 10.3 (00:00) 13.7 8.61 (21:30) 5 (13:20) 0 0 0 0 0
04-01-2020 16.1 (15:30) 9 (00:00) 12.6 5 (00:10) 2.5 (01:50) 0 0 0 0 0
05-01-2020 16.1 (12:40) 11.3 (00:00) 13.7 10.56 (17:10) 5 (12:30) 0 0 0 0 0
06-01-2020 16.8 (15:50) 10.2 (00:00) 13.5 7.78 (16:50) 4.17 (16:50) 0 0 0 0 0
08-01-2020 19.8 (15:20) 9.8 (00:00) 14.8 6.67 (23:59) 3.06 (23:50) 0 0 0 0 0
18-01-2020 15.9 (22:40) 11.2 (00:00) 13.5 12.78 (22:10) 7.22 (21:40) 3.7 0.1 0.1 0.1 3.4
24-01-2020 13.3 (11:20) 10.9 (00:00) 12.1 14.17 (19:20) 7.5 (19:50) 17.3 0.1 0.5 10.4 6.3
22-01-2020 12.6 (14:10) 8.6 (00:00) 10.6 12.22 (15:50) 5.56 (15:50) 11.2 0.2 2.9 3.6 4.5
19-01-2020 15.9 (00:30) 8.5 (00:00) 12.2 14.44 (01:00) 7.5 (00:20) 2.7 2.1 0 0.6 0
23-01-2020 13.8 (13:40) 9.8 (00:00) 11.8 11.11 (08:30) 5.56 (12:00) 28.5 2.1 0.7 12.7 13
25-01-2020 12.8 (02:10) 10 (00:00) 11.4 15.28 (05:50) 6.94 (05:50) 98.1 28.7 52.4 15.4 1.6

Gráficas

Temp. máximas Temp. mínimas Temp. medias Precipitaciones Rachas de viento máximas Velocidades máximas media en intervalos de 10 minutos

Datos horarios

Fecha y hora oficial Temperatura (ºC) Velocidad del viento (km/h) Dirección del viento Racha (km/h) Dirección de racha Precipitación (mm) Presión (hPa) Tendencia (hPa) Humedad (%)
2020-01-25 23:00:00 11.6 7 Oeste 14 Noroeste 0.1 998.8 2.4 89
2020-01-25 22:00:00 11.8 7 Noroeste 16 Oeste 0 998.2 2.9 91
2020-01-25 21:00:00 11.9 9 Oeste 19 Oeste 0 997.4 2.7 89
2020-01-25 20:00:00 12 9 Oeste 30 Oeste 0 996.4 2 90
2020-01-25 19:00:00 12.5 18 Sudoeste 41 Sudoeste 1.5 995.3 0.8 90
2020-01-25 18:00:00 12.4 14 Sudoeste 25 Sudoeste 0.4 994.7 0 89
2020-01-25 17:00:00 12.1 4 Sudeste 14 Sudoeste 1.2 994.4 -0.4 92
2020-01-25 16:00:00 12.2 10 Sudoeste 35 Sudoeste 2.3 994.5 -0.4 92
2020-01-25 15:00:00 11.5 20 Sudoeste 42 Sudoeste 5.1 994.7 -0.2 90
2020-01-25 14:00:00 12.1 19 Sur 40 Sur 0.9 994.8 0 88
2020-01-25 13:00:00 12.7 21 Sur 45 Sudoeste 5.5 994.9 0.7 90
2020-01-25 12:00:00 11.8 17 Sur 44 Sudoeste 12.5 994.9 1.1 93
2020-01-25 11:00:00 11.9 15 Sur 33 Sur 1.2 994.8 1.5 91
2020-01-25 10:00:00 11.8 18 Sur 41 Sur 1.4 994.2 1 91
2020-01-25 09:00:00 11.5 19 Sur 45 Sur 0.8 993.8 0.2 91
2020-01-25 08:00:00 11.1 21 Sur 45 Oeste 32.6 993.3 -0.4 92
2020-01-25 07:00:00 11.1 12 Sudeste 33 Sudoeste 3.9 993.2 -1.7 93
2020-01-25 06:00:00 10.1 17 Sudoeste 55 Sudoeste 5.5 993.6 -1.4 91
2020-01-25 05:00:00 11.7 12 Sudeste 28 Sur 3.3 993.7 -1 93
2020-01-25 04:00:00 11.7 17 Sur 32 Sur 4.8 994.9 -0.5 92
2020-01-25 03:00:00 12 15 Sudoeste 49 Sur 1.9 995 -1.1 90
2020-01-25 02:00:00 12.6 13 Sur 30 Sur 0.1 994.7 -1.5 93
2020-01-25 01:00:00 11.1 9 Sudoeste 22 Sudeste 13.1 995.4 -0.9 90
2020-01-25 00:00:00 12.2 6 Sur 11 Sur 0 996.1 0.3 92
2020-01-24 23:00:00 12 4 Sudoeste 12 Sudoeste 0.1 996.2 0.9 90
2020-01-24 22:00:00 12.2 9 Sudoeste 20 Oeste 0 996.3 2 89
2020-01-24 21:00:00 12.3 13 Sudoeste 41 Sudoeste 1.3 995.8 1.4 91
2020-01-24 20:00:00 12.2 26 Sudoeste 51 Sur 4.8 995.3 0.6 89
2020-01-24 19:00:00 13 19 Sur 42 Sudoeste 0.1 994.3 -0.7 87
2020-01-24 18:00:00 12.4 17 Sur 36 Sudeste 0.6 994.4 -0.8 90
2020-01-24 17:00:00 12.1 15 Sur 44 Sudoeste 3.3 994.7 -1.5 92
2020-01-24 16:00:00 11.6 16 Sur 47 Sur 4 995 -2.4 90
2020-01-24 15:00:00 12.7 13 Sudeste 27 Sudeste 1 995.2 -2.6 90
2020-01-24 14:00:00 12.6 8 Sudeste 27 Este 1.3 996.2 -1.4 91
2020-01-24 13:00:00 13 9 Sudeste 25 Sudeste 0.2 997.4 -0.1 87
2020-01-24 12:00:00 13 10 Sudeste 24 Este 0.1 997.8 1 85
2020-01-24 11:00:00 13.1 11 Sudeste 22 Este 0 997.6 0.9 85
2020-01-24 10:00:00 11.7 9 Sudeste 18 Sudeste 0.4 997.5 1.2 89
2020-01-24 09:00:00 11.3 7 Este 27 Sudeste 0 996.8 0.4 87
2020-01-24 08:00:00 11.9 13 Sur 31 Sur 0 996.7 0.3 85
2020-01-24 07:00:00 11.9 14 Sudeste 30 Sudeste 0 996.3 -0.4 86
2020-01-24 06:00:00 11.9 13 Sudeste 35 Sudeste 0 996.4 0 88
2020-01-24 05:00:00 11.9 14 Sur 30 Sudeste 0 996.4 -0.5 90
2020-01-24 04:00:00 11.9 16 Sur 29 Sudeste 0 996.7 0 90
2020-01-24 03:00:00 11.5 14 Sudeste 31 Sudeste 0 996.4 -0.2 92
2020-01-24 02:00:00 11.6 15 Sur 29 Sur 0 996.9 0.1 93
2020-01-24 01:00:00 10.9 17 Sur 32 Sudeste 0.1 996.7 0.2 94
2020-01-24 00:00:00 11 14 Sudeste 26 Sudeste 0.5 996.6 0.7 94
2020-01-23 23:00:00 11 8 Sudeste 18 Este 0.5 996.8 1.4 94
2020-01-23 22:00:00 11.1 7 Sudeste 21 Sudeste 0.5 996.5 1.7 94
2020-01-23 21:00:00 10.9 2 Este 18 Sur 4.2 995.9 1.3 93
2020-01-23 20:00:00 10.9 10 Sudeste 22 Sudeste 4.9 995.4 1.1 94
2020-01-23 19:00:00 10.9 11 Sudeste 24 Sur 2.4 994.8 1 93
2020-01-23 18:00:00 9.9 15 Sur 32 Sudoeste 5.6 994.6 0.8 91
2020-01-23 17:00:00 10.9 19 Sudoeste 33 Sudoeste 5.6 994.3 -0.1 88
2020-01-23 16:00:00 12.3 16 Sur 32 Sur 0.4 993.8 -1.1 83
2020-01-23 15:00:00 12.5 13 Sur 33 Sur 0.8 993.8 -1.2 85
2020-01-23 14:00:00 12.8 14 Sur 40 Sur 0.3 994.4 -0.6 83
2020-01-23 13:00:00 13.4 18 Sur 38 Sudeste 0 994.9 0.5 76
2020-01-23 12:00:00 13.1 20 Sur 40 Sur 0 995 1.3 76
2020-01-23 11:00:00 12.6 17 Sudeste 38 Sudeste 0 995 1.7 81
2020-01-23 10:00:00 11.7 16 Sudeste 33 Sudeste 0 994.4 1.2 85
2020-01-23 09:00:00 10.6 14 Sudeste 40 Sur 0 993.7 0.5 89
2020-01-23 08:00:00 11.2 17 Sur 33 Sur 0.7 993.3 0.2 88
2020-01-23 07:00:00 11.2 11 Sudeste 31 Sudeste 0 993.2 -0.5 87
2020-01-23 06:00:00 11.2 11 Sur 33 Sudeste 1.2 993.2 -0.7 88
2020-01-23 05:00:00 11.4 16 Sudeste 32 Sudeste 0.6 993.1 -0.9 86
2020-01-23 04:00:00 11.6 13 Sudeste 24 Sudeste 0 993.7 -0.3 82
2020-01-23 03:00:00 11.4 15 Sudeste 28 Sur 0 993.9 -0.1 82
2020-01-23 02:00:00 11.2 14 Sudeste 27 Sudeste 0.1 994 -0.1 84
2020-01-23 01:00:00 10.8 14 Sudeste 34 Sudeste 0.2 994 0 90
2020-01-23 00:00:00 10.7 16 Sudeste 36 Sudeste 0.6 994 0.2 91
2020-01-22 23:00:00 10.3 10 Sudeste 21 Sudeste 0.3 994.1 0.4 92
2020-01-22 22:00:00 9.9 8 Sudeste 17 Sudeste 0.1 994 0.8 92
2020-01-22 21:00:00 10 8 Sudeste 21 Sur 1.9 993.8 0.9 91
2020-01-22 20:00:00 10.5 12 Sur 31 Sudeste 1.1 993.7 1.5 88
2020-01-22 19:00:00 11 14 Sur 36 Sur 0.5 993.2 1 86
2020-01-22 18:00:00 11.2 13 Sur 28 Sur 0.1 992.9 0.7 81
2020-01-22 17:00:00 11 13 Sur 28 Sur 0.4 992.2 -0.6 87
2020-01-22 16:00:00 10.4 17 Sur 44 Sur 3 992.2 -1.4 88
2020-01-22 15:00:00 12.1 15 Sur 28 Sur 0.1 992.2 -1.7 77
2020-01-22 14:00:00 12.5 10 Sudeste 24 Sudeste 0 992.8 -0.9 78
2020-01-22 13:00:00 11.7 11 Sur 24 Sur 0 993.6 0.5 85
2020-01-22 12:00:00 10.9 6 Sur 15 Sur 0.1 993.9 1.1 89
2020-01-22 11:00:00 10.1 3 Este 7 Sudoeste 1.9 993.7 1.3 90
2020-01-22 10:00:00 9.5 4 Nordeste 11 Nordeste 0.4 993.1 1.5 90
2020-01-22 09:00:00 9.1 0 Calma 7 Nordeste 0.3 992.8 1.2 90
2020-01-22 08:00:00 9.1 3 Nordeste 11 Este 0.2 992.4 0.4 89
2020-01-22 07:00:00 8.8 4 Nordeste 9 Este 0 991.6 -0.4 88
2020-01-22 06:00:00 8.8 5 Nordeste 9 Este 0.1 991.6 -0.4 84
2020-01-22 05:00:00 9.5 3 Este 6 Este 0.1 992 0.1 77
2020-01-22 04:00:00 10 3 Este 5 Este 0 992 0 68
2020-01-22 03:00:00 9.8 2 Sudeste 6 Sur 0 992 0 68
2020-01-22 02:00:00 9.6 4 Sudeste 5 Sudeste 0 991.9 0.3 68
2020-01-22 01:00:00 9.8 4 Este 7 Oeste 0 992 0.7 67
2020-01-22 00:00:00 9.9 0 Calma 6 Noroeste 0 992 0.7 65
2020-01-21 23:00:00 9.6 4 Oeste 8 Sudoeste 0 991.6 0.6 68
2020-01-21 22:00:00 10.1 6 Oeste 11 Noroeste 0 991.3 0.9 65
2020-01-21 21:00:00 10.3 6 Oeste 14 Oeste 0 991.3 1.4 64
2020-01-21 20:00:00 10.5 6 Noroeste 13 Oeste 0 991 1.3 63
2020-01-21 19:00:00 10.8 6 Noroeste 15 Norte 0 990.4 0.7 63
2020-01-21 18:00:00 11.9 8 Norte 15 Norte 0 989.9 0.2 58
2020-01-21 17:00:00 13.2 6 Norte 16 Norte 0 989.7 -0.4 55
2020-01-21 16:00:00 13.4 6 Noroeste 19 Noroeste 0 989.7 -1.1 56
2020-01-21 15:00:00 13.9 8 Oeste 14 Oeste 0 989.7 -2 53
2020-01-21 14:00:00 13.8 5 Oeste 13 Oeste 0 990.1 -1.3 50
2020-01-21 13:00:00 13.5 6 Oeste 12 Norte 0 990.8 -0.8 54
2020-01-21 12:00:00 12.8 4 Noroeste 9 Noroeste 0 991.7 0.4 60
2020-01-21 11:00:00 11.3 0 Calma 13 Norte 0 991.4 0.3 61
2020-01-21 10:00:00 10.2 3 Nordeste 15 Norte 0 991.6 0.7 61
2020-01-21 09:00:00 8.4 7 Norte 12 Norte 0 991.3 0.3 68
2020-01-21 08:00:00 8.1 4 Nordeste 10 Nordeste 0 991.1 0 71
2020-01-21 07:00:00 8.1 3 Norte 12 Nordeste 0 990.9 -0.5 73
2020-01-21 06:00:00 8.4 3 Nordeste 8 Este 0 991 -0.6 70
2020-01-21 05:00:00 8.7 3 Norte 17 Norte 0 991.1 -1 69
2020-01-21 04:00:00 8.9 4 Norte 10 Norte 0 991.4 -1.2 71
2020-01-21 03:00:00 9.8 5 Nordeste 14 Nordeste 0 991.6 -1 71
2020-01-21 02:00:00 9.2 5 Nordeste 14 Este 0 992.1 -0.1 76
2020-01-21 01:00:00 9.4 7 Este 24 Este 0 992.6 0.7 74
2020-01-21 00:00:00 9.4 6 Nordeste 16 Nordeste 0 992.6 0.6 66
2020-01-20 23:00:00 9.4 5 Nordeste 14 Nordeste 0 992.2 0.5 65
2020-01-20 22:00:00 9.2 4 Nordeste 15 Nordeste 0 991.9 0.5 67
2020-01-20 21:00:00 8.8 4 Nordeste 17 Nordeste 0 992 1 70
2020-01-20 20:00:00 8.4 9 Este 25 Este 0 991.7 1.2 74
2020-01-20 19:00:00 9.1 9 Este 30 Este 0 991.4 1.1 72
2020-01-20 18:00:00 10.3 9 Este 26 Nordeste 0 991 0.2 66
2020-01-20 17:00:00 11.9 9 Este 23 Este 0 990.5 -0.7 59
2020-01-20 16:00:00 11.3 10 Este 27 Este 0 990.3 -1.3 58
2020-01-20 15:00:00 12.3 6 Nordeste 16 Este 0 990.8 -1.1 53
2020-01-20 14:00:00 12.4 5 Nordeste 16 Nordeste 0 991.2 -0.9 52
2020-01-20 13:00:00 11.6 6 Nordeste 16 Este 0 991.6 -0.3 54
2020-01-20 12:00:00 8.7 4 Nordeste 17 Norte 0 991.9 0 63
2020-01-20 11:00:00 7.6 5 Norte 17 Norte 0 992.1 0.4 66
2020-01-20 10:00:00 7.4 8 Nordeste 21 Norte 0 991.9 0.2 65
2020-01-20 09:00:00 6.5 13 Norte 25 Norte 0 991.9 0.1 68
2020-01-20 08:00:00 6.6 6 Norte 19 Norte 0 991.7 -0.2 69
2020-01-20 07:00:00 7 7 Norte 23 Norte 0 991.7 -0.9 69
2020-01-20 06:00:00 7.3 7 Norte 23 Norte 0 991.8 -0.9 68
2020-01-20 05:00:00 7.4 6 Nordeste 27 Norte 0 991.9 -1.3 69
2020-01-20 04:00:00 7.7 7 Nordeste 24 Nordeste 0 992.6 -0.6 70
2020-01-20 03:00:00 7.9 7 Nordeste 29 Este 0 992.7 -0.6 70
2020-01-20 02:00:00 7.7 7 Norte 30 Norte 0 993.2 -0.6 73
2020-01-20 01:00:00 8.4 9 Nordeste 32 Este 0 993.2 -1.1 70
2020-01-20 00:00:00 8.6 10 Nordeste 37 Norte 0 993.3 -1.3 70
2020-01-19 23:00:00 9.5 10 Norte 44 Norte 0 993.8 -1.4 64
2020-01-19 22:00:00 10.5 7 Norte 30 Norte 0 994.3 -1.2 58
2020-01-19 21:00:00 10.8 11 Norte 26 Norte 0 994.6 -1.1 64
2020-01-19 20:00:00 11.5 6 Nordeste 23 Norte 0 995.2 -0.3 63
2020-01-19 19:00:00 11.6 8 Norte 23 Norte 0 995.5 -0.7 68
2020-01-19 18:00:00 11.6 5 Norte 26 Noroeste 0.6 995.7 -1.1 70
2020-01-19 17:00:00 14.1 7 Norte 20 Norte 0 995.5 -1.8 59
2020-01-19 16:00:00 13.8 8 Noroeste 20 Norte 0 996.2 -2.2 60
2020-01-19 15:00:00 14.5 7 Norte 22 Norte 0 996.8 -2.5 60
2020-01-19 14:00:00 14.2 8 Norte 21 Norte 0 997.3 -2.5 61
2020-01-19 13:00:00 14 8 Norte 25 Norte 0 998.4 -1.8 64
2020-01-19 12:00:00 12.9 9 Noroeste 30 Oeste 0 999.3 -0.6 72
2020-01-19 11:00:00 11.9 13 Noroeste 33 Oeste 0 999.8 -0.3 78
2020-01-19 10:00:00 11 11 Noroeste 29 Oeste 0 1000.2 0.4 82
2020-01-19 09:00:00 10.6 14 Noroeste 30 Noroeste 0 999.9 -0.1 81
2020-01-19 08:00:00 10.7 12 Noroeste 30 Noroeste 0 1000.1 -0.9 82
2020-01-19 07:00:00 11.4 13 Noroeste 37 Oeste 0 999.8 -1.4 77
2020-01-19 06:00:00 12.2 16 Noroeste 37 Noroeste 0 1000 -2.6 78
2020-01-19 05:00:00 13 19 Oeste 40 Noroeste 0 1001 -1.9 82
2020-01-19 04:00:00 12.4 16 Oeste 35 Noroeste 0 1001.2 -1.3 85
2020-01-19 03:00:00 12.6 16 Oeste 33 Noroeste 0 1002.6 -0.9 85
2020-01-19 02:00:00 12.6 15 Noroeste 50 Oeste 0.7 1002.9 -1.2 88
2020-01-19 01:00:00 15.8 24 Oeste 52 Sudoeste 1.4 1002.5 -1.9 95
2020-01-19 00:00:00 15.6 23 Oeste 40 Oeste 0 1003.5 -2 95
2020-01-18 23:00:00 15.7 20 Oeste 46 Sudoeste 0.3 1004.1 -1.7 95
2020-01-18 22:00:00 15.6 26 Sudoeste 43 Oeste 1.2 1004.4 -1.8 95
2020-01-18 21:00:00 15.4 24 Sudoeste 45 Oeste 0.2 1005.5 -1 95
2020-01-18 20:00:00 15.3 24 Sudoeste 41 Sudoeste 0.1 1005.8 -1.2 94
2020-01-18 19:00:00 15.2 21 Sudoeste 37 Sudoeste 1.6 1006.2 -0.9 94
2020-01-18 18:00:00 15 17 Sudoeste 36 Sudoeste 0.1 1006.5 -1.2 93
2020-01-18 17:00:00 15.1 18 Sudoeste 30 Sudoeste 0 1007 -1.6 90
2020-01-18 16:00:00 15.1 18 Sudoeste 28 Sudoeste 0 1007.1 -2.5 90
2020-01-18 15:00:00 15.4 17 Sudoeste 27 Sudoeste 0 1007.7 -2.9 89
2020-01-18 14:00:00 15.5 14 Sudoeste 23 Sudoeste 0 1008.6 -1.9 89
2020-01-18 13:00:00 14.4 5 Sur 13 Sur 0 1009.6 -0.4 93
2020-01-18 12:00:00 15 8 Sudoeste 16 Sudoeste 0 1010.6 0.9 94
2020-01-18 11:00:00 14.5 8 Sudoeste 14 Sudoeste 0.1 1010.5 1.4 94
2020-01-18 10:00:00 13.2 4 Sur 11 Sudoeste 0 1010 1.5 94
2020-01-18 09:00:00 13.4 6 Sudoeste 17 Oeste 0 1009.7 1 94
2020-01-18 08:00:00 12.8 10 Oeste 16 Oeste 0 1009.1 0.4 94
2020-01-18 07:00:00 12.9 0 Calma 12 Oeste 0 1008.5 -0.6 93
2020-01-18 06:00:00 13.4 7 Oeste 10 Oeste 0 1008.7 -0.6 93
2020-01-18 05:00:00 12.9 0 Calma 4 Este 0.1 1008.7 -0.9 93
2020-01-18 04:00:00 12.7 3 Nordeste 5 Nordeste 0 1009.1 -1 94
2020-01-18 03:00:00 11.8 0 Calma 5 Este 0 1009.3 -1.2 94
2020-01-18 02:00:00 11.7 0 Calma 5 Norte 0 1009.6 -0.8 91
2020-01-18 01:00:00 13.3 3 Norte 7 Norte 0 1010.1 -0.6 91
2020-01-18 00:00:00 13 0 Calma 4 Nordeste 0 1010.5 0.2 90
2020-01-17 23:00:00 13.3 0 Calma 10 Oeste 0 1010.4 0.3 90
2020-01-17 22:00:00 14 7 Oeste 12 Oeste 0 1010.7 1.1 90
2020-01-17 21:00:00 13.5 4 Oeste 9 Oeste 0 1010.3 1 89
2020-01-17 20:00:00 13.8 6 Oeste 12 Oeste 0 1010.1 0.9 86
2020-01-17 19:00:00 14.4 8 Oeste 12 Oeste 0 1009.6 0.4 83
2020-01-17 18:00:00 15.6 5 Oeste 15 Sudoeste 0 1009.3 -0.1 78
2020-01-17 17:00:00 15.4 7 Oeste 15 Sudoeste 0 1009.2 -0.9 76
2020-01-17 16:00:00 16.3 8 Sudoeste 15 Sudoeste 0 1009.2 -1.6 76
2020-01-17 15:00:00 17.3 9 Sudoeste 20 Sudoeste 0 1009.4 -2 72
2020-01-17 14:00:00 17.4 11 Oeste 20 Sudoeste 0 1010.1 -1.3 73
2020-01-17 13:00:00 17.1 6 Sudoeste 15 Sudoeste 0 1010.8 0.2 75
2020-01-17 12:00:00 15.7 9 Sudoeste 19 Sudoeste 0 1011.4 1.3 81
2020-01-17 11:00:00 14.9 8 Sudoeste 18 Sudoeste 0 1011.4 1.6 82
2020-01-17 10:00:00 13.9 7 Sudoeste 15 Sudoeste 0 1010.6 1.6 86
2020-01-17 09:00:00 13 6 Sudoeste 13 Sur 0 1010.1 1.5 85
2020-01-17 08:00:00 12.5 6 Sudoeste 15 Sur 0 1009.8 1.6 83
2020-01-17 07:00:00 12.9 7 Sudoeste 15 Sur 0 1009 0.5 77
2020-01-17 06:00:00 13.2 8 Sur 16 Sur 0 1008.6 0.1 72
2020-01-17 05:00:00 12.5 9 Sur 15 Sur 0 1008.2 -0.5 86
2020-01-17 04:00:00 12.7 9 Sur 15 Sur 0 1008.5 -0.4 86
2020-01-17 03:00:00 12.5 5 Sur 11 Sur 0 1008.5 -0.1 90
2020-01-17 02:00:00 12.6 4 Sur 10 Sudeste 0 1008.7 0.5 89
2020-01-17 01:00:00 13.1 4 Sur 7 Sur 0 1008.9 0.7 86
2020-01-17 00:00:00 13.2 4 Sur 9 Sudeste 0 1008.6 0.9 85
2020-01-16 23:00:00 13.1 4 Sur 9 Sudoeste 0 1008.2 1 82
2020-01-16 22:00:00 13.3 7 Oeste 13 Sudoeste 0 1008.2 1.6 80
2020-01-16 21:00:00 13.3 7 Sudoeste 14 Sudoeste 0 1007.7 1.5 79
2020-01-16 20:00:00 13.5 9 Sudoeste 14 Sudoeste 0 1007.2 1.2 75
2020-01-16 19:00:00 14.3 8 Sudoeste 20 Oeste 0 1006.6 0.8 72
2020-01-16 18:00:00 15.2 8 Sudoeste 15 Sudoeste 0 1006.2 0.3 59
2020-01-16 17:00:00 17.2 9 Sur 19 Sudoeste 0 1006 -0.1 64
2020-01-16 16:00:00 18.1 10 Sur 19 Sur 0 1005.8 -0.7 57
2020-01-16 15:00:00 18.9 8 Sur 19 Sudeste 0 1005.9 -0.9 50
2020-01-16 14:00:00 19.2 9 Sudeste 22 Sur 0 1006.1 -0.9 46
2020-01-16 13:00:00 18.8 6 Sudeste 15 Sudeste 0 1006.5 0.2 45
2020-01-16 12:00:00 16.3 5 Este 12 Este 0 1006.8 1.1 57
2020-01-16 11:00:00 13.9 5 Este 12 Este 0 1007 1.5 64
2020-01-16 10:00:00 12.1 6 Este 12 Este 0 1006.3 1.3 75
2020-01-16 09:00:00 10.7 7 Este 12 Este 0 1005.7 1 80
2020-01-16 08:00:00 10.2 5 Este 12 Nordeste 0 1005.5 0.6 84
2020-01-16 07:00:00 11.3 6 Nordeste 9 Este 0 1005 -0.1 68
2020-01-16 06:00:00 11.7 5 Este 11 Este 0 1004.7 -0.5 57
2020-01-16 05:00:00 12.5 5 Este 9 Este 0 1004.9 -0.7 52
2020-01-16 04:00:00 13.3 4 Este 8 Nordeste 0 1005.1 -0.5 45
2020-01-16 03:00:00 13 4 Este 8 Este 0 1005.2 -0.7 47
2020-01-16 02:00:00 11.9 4 Este 7 Nordeste 0 1005.6 -0.4 50
2020-01-16 01:00:00 12.5 3 Nordeste 7 Nordeste 0 1005.6 -0.1 56
2020-01-16 00:00:00 13.5 0 Calma 4 Este 0 1005.9 0.1 54
2020-01-15 23:00:00 13.4 3 Este 6 Este 0 1006 0.2 63
2020-01-15 22:00:00 13.3 2 Nordeste 6 Nordeste 0 1005.7 0.5 72
2020-01-15 21:00:00 13.5 2 Nordeste 5 Este 0 1005.8 0.8 72
2020-01-15 20:00:00 13.7 2 Este 8 Sudoeste 0 1005.8 1 67
2020-01-15 19:00:00 14.3 6 Sudoeste 17 Sudoeste 0 1005.2 0.7 63
2020-01-15 18:00:00 15.4 10 Sudoeste 19 Sur 0 1005 0.6 58
2020-01-15 17:00:00 17.6 11 Sudoeste 22 Sudoeste 0 1004.8 0.2 45
2020-01-15 16:00:00 18.1 11 Sur 26 Sudoeste 0 1004.5 -0.5 45
2020-01-15 15:00:00 17.8 17 Sudoeste 31 Sudoeste 0 1004.4 -1.2 49
2020-01-15 14:00:00 17.6 14 Sudoeste 29 Sudoeste 0 1004.6 -0.6 49
2020-01-15 13:00:00 17 14 Sur 30 Sur 0 1005 0.7 51
2020-01-15 12:00:00 15.9 13 Sur 27 Sur 0 1005.6 1.8 59
2020-01-15 11:00:00 14.8 11 Sur 23 Sur 0 1005.2 1.7 66
2020-01-15 10:00:00 13.5 11 Sur 22 Sur 0 1004.3 1.9 73
2020-01-15 09:00:00 11.8 12 Sur 21 Sur 0 1003.8 1.5 81
2020-01-15 08:00:00 11.2 10 Sur 16 Sur 0 1003.5 1.1 85
2020-01-15 07:00:00 11.2 6 Sur 13 Sudoeste 0 1002.4 -0.2 87
2020-01-15 06:00:00 11.5 8 Sur 13 Sur 0 1002.3 -0.3 87
2020-01-15 05:00:00 11.6 6 Sur 10 Sudeste 0 1002.4 -0.1 85
2020-01-15 04:00:00 11.3 5 Sur 9 Sur 0 1002.6 -0.5 84
2020-01-15 03:00:00 11 3 Sudeste 7 Este 0 1002.6 -0.6 83
2020-01-15 02:00:00 11.5 5 Este 7 Este 0 1002.5 -0.6 83
2020-01-15 01:00:00 11.3 2 Nordeste 5 Nordeste 0 1003.1 0.3 84
2020-01-15 00:00:00 12 2 Este 4 Este 0 1003.2 0.4 80
2020-01-14 23:00:00 12.5 0 Calma 5 Sudoeste 0 1003.1 0.3 78
2020-01-14 22:00:00 12.9 2 Sudoeste 6 Sur 0 1002.8 0.2 75
2020-01-14 21:00:00 13 4 Sudoeste 5 Sur 0 1002.8 0.6 72
2020-01-14 20:00:00 12.9 4 Oeste 9 Oeste 0 1002.8 0.9 70
2020-01-14 19:00:00 13 8 Oeste 12 Oeste 0 1002.6 1 73
2020-01-14 18:00:00 14.3 7 Sudoeste 18 Sudoeste 0 1002.2 0.6 72
2020-01-14 17:00:00 15.2 12 Sudoeste 20 Sudoeste 0 1001.9 -0.3 61
2020-01-14 16:00:00 16 11 Sudoeste 19 Sudoeste 0 1001.6 -1.5 53
2020-01-14 15:00:00 17.1 7 Sudoeste 17 Sudoeste 0 1001.6 -2.2 51
2020-01-14 14:00:00 16.1 6 Sudoeste 20 Sudoeste 0 1002.2 -1.3 51
2020-01-14 13:00:00 15.8 5 Sudoeste 14 Sur 0 1003.1 0.2 48
2020-01-14 12:00:00 14.3 6 Sudoeste 10 Sudoeste 0 1003.8 1.5 54
2020-01-14 11:00:00 12.9 0 Calma 4 Este 0 1003.5 1.4 73
2020-01-14 10:00:00 11.4 0 Calma 5 Oeste 0 1002.9 1.2 78
2020-01-14 09:00:00 10.9 0 Calma 4 Noroeste 0 1002.3 0.9 82
2020-01-14 08:00:00 10.5 2 Nordeste 4 Norte 0 1002.1 0.6 78
2020-01-14 07:00:00 11 3 Norte 5 Norte 0 1001.7 0 81
2020-01-14 06:00:00 10.7 0 Calma 4 Nordeste 0 1001.4 -0.6 79
2020-01-14 05:00:00 10.6 0 Calma 4 Este 0 1001.5 -0.8 78
2020-01-14 04:00:00 10.7 2 Nordeste 6 Nordeste 0 1001.7 -1.1 79
2020-01-14 03:00:00 11.1 4 Nordeste 5 Nordeste 0 1002 -0.9 80
2020-01-14 02:00:00 10.8 3 Nordeste 7 Este 0 1002.3 -0.7 81
2020-01-14 01:00:00 10.4 2 Nordeste 6 Nordeste 0 1002.8 -0.3 84
2020-01-14 00:00:00 10.2 4 Nordeste 6 Nordeste 0 1002.9 -0.5 84
2020-01-13 23:00:00 11.1 2 Nordeste 6 Nordeste 0 1003 -0.6 81
2020-01-13 22:00:00 12 4 Nordeste 8 Nordeste 0 1003.1 -0.4 76
2020-01-13 21:00:00 12.3 4 Este 7 Nordeste 0 1003.4 0.3 75
2020-01-13 20:00:00 12.7 6 Sur 11 Sudeste 0 1003.6 0.9 78
2020-01-13 19:00:00 13.1 6 Sur 13 Sur 0 1003.5 0.2 75
2020-01-13 18:00:00 14.5 8 Sur 16 Sur 0 1003.1 -0.3 68
2020-01-13 17:00:00 16.8 8 Sur 15 Sur 0 1002.7 -1.4 57
2020-01-13 16:00:00 16.6 3 Este 7 Este 0 1003.3 -1.5 55
2020-01-13 15:00:00 16.6 0 Calma 12 Este 0 1003.4 -2.1 55
2020-01-13 14:00:00 17.6 4 Este 22 Sudeste 0 1004.1 -1.2 54
2020-01-13 13:00:00 16.5 8 Este 21 Este 0 1004.8 -0.2 59
2020-01-13 12:00:00 15.4 10 Este 25 Este 0 1005.5 0.8 63
2020-01-13 11:00:00 13.3 9 Este 20 Este 0 1005.3 0.9 75
2020-01-13 10:00:00 11.5 9 Este 19 Este 0 1005 0.9 80
2020-01-13 09:00:00 10.1 9 Este 18 Este 0 1004.7 0.4 86
2020-01-13 08:00:00 9.9 9 Este 20 Este 0 1004.4 -0.3 86
2020-01-13 07:00:00 9.9 10 Este 20 Este 0 1004.1 -1 86
2020-01-13 06:00:00 9.9 10 Este 18 Este 0 1004.3 -1.1 86
2020-01-13 05:00:00 9.8 8 Este 17 Este 0 1004.7 -1.2 88
2020-01-13 04:00:00 9.9 7 Este 17 Este 0 1005.1 -1.6 88
2020-01-13 03:00:00 9.9 7 Este 15 Nordeste 0 1005.4 -1.9 88
2020-01-13 02:00:00 10.1 7 Nordeste 14 Este 0 1005.9 -1.1 87
2020-01-13 01:00:00 10.4 5 Este 13 Este 0 1006.7 -0.2 86
2020-01-13 00:00:00 10.7 5 Nordeste 10 Nordeste 0 1007.3 0.4 85
2020-01-12 23:00:00 10.9 3 Nordeste 9 Nordeste 0 1007 0.1 82
2020-01-12 22:00:00 11.3 4 Nordeste 9 Nordeste 0 1006.9 0.6 80
2020-01-12 21:00:00 12 3 Este 11 Este 0 1006.9 0.8 75
2020-01-12 20:00:00 12.7 5 Este 12 Este 0 1006.9 0.9 64
2020-01-12 19:00:00 14.4 4 Este 11 Este 0 1006.3 0.1 58
2020-01-12 18:00:00 16.6 0 Calma 11 Nordeste 0 1006.1 -0.5 50
2020-01-12 17:00:00 17.6 5 Nordeste 14 Nordeste 0 1006 -1.4 47
2020-01-12 16:00:00 17.9 5 Nordeste 19 Este 0 1006.2 -2 45
2020-01-12 15:00:00 17.5 8 Este 19 Este 0 1006.6 -2.4 48
2020-01-12 14:00:00 17 5 Nordeste 19 Este 0 1007.4 -1.9 54
2020-01-12 13:00:00 16.6 9 Este 23 Este 0 1008.2 -0.4 58
2020-01-12 12:00:00 14.7 6 Nordeste 17 Este 0 1009 0.7 68
2020-01-12 11:00:00 12.8 7 Nordeste 19 Nordeste 0 1009.3 1.5 74
2020-01-12 10:00:00 11.3 9 Nordeste 19 Nordeste 0 1008.6 0.8 79
2020-01-12 09:00:00 10 6 Nordeste 18 Nordeste 0 1008.3 0.7 83
2020-01-12 08:00:00 9.9 8 Nordeste 18 Nordeste 0 1007.8 0 84
2020-01-12 07:00:00 10.3 8 Nordeste 20 Nordeste 0 1007.8 -0.3 82
2020-01-12 06:00:00 10.3 8 Nordeste 22 Este 0 1007.6 -0.5 82
2020-01-12 05:00:00 10.6 10 Nordeste 21 Nordeste 0 1007.8 -0.3 80
2020-01-12 04:00:00 10.8 9 Este 21 Este 0 1008.1 -0.2 79
2020-01-12 03:00:00 10.8 10 Este 23 Este 0 1008.1 -0.3 79
2020-01-12 02:00:00 11.1 10 Este 27 Este 0 1008.1 -0.3 78
2020-01-12 01:00:00 11.3 11 Este 25 Este 0 1008.3 0.1 76
2020-01-12 00:00:00 11.2 13 Este 27 Este 0 1008.4 0.4 77
2020-01-11 23:00:00 11.1 12 Este 22 Nordeste 0 1008.4 0.6 77
2020-01-11 22:00:00 11.3 7 Este 15 Este 0 1008.2 1.1 76
2020-01-11 21:00:00 12.1 9 Este 26 Este 0 1008 1.5 73
2020-01-11 20:00:00 12.2 8 Este 25 Este 0 1007.8 1.5 71
2020-01-11 19:00:00 13.1 9 Este 27 Este 0 1007.1 0.9 66
2020-01-11 18:00:00 14.6 11 Este 28 Este 0 1006.5 0.4 57
2020-01-11 17:00:00 15.2 12 Este 33 Este 0 1006.3 -0.3 52
2020-01-11 16:00:00 17 13 Este 29 Sudeste 0 1006.2 -1.1 51
2020-01-11 15:00:00 17.7 10 Este 27 Este 0 1006.1 -1.5 47
2020-01-11 14:00:00 18.3 14 Este 33 Este 0 1006.6 -1 47
2020-01-11 13:00:00 16.8 13 Este 27 Este 0 1007.3 0.4 52
2020-01-11 12:00:00 15.1 10 Este 21 Este 0 1007.6 1.3 67
2020-01-11 11:00:00 13.5 7 Este 17 Este 0 1007.6 1.9 71
2020-01-11 10:00:00 12 7 Este 16 Este 0 1006.9 1.8 75
2020-01-11 09:00:00 10.4 8 Este 16 Este 0 1006.3 1.6 79
2020-01-11 08:00:00 10.3 6 Este 12 Este 0 1005.7 0.9 76
2020-01-11 07:00:00 10.4 5 Este 15 Nordeste 0 1005.1 0.1 71
2020-01-11 06:00:00 10.8 7 Nordeste 14 Nordeste 0 1004.7 0.1 58
2020-01-11 05:00:00 10.8 6 Nordeste 13 Nordeste 0 1004.8 0.4 58
2020-01-11 04:00:00 11 6 Nordeste 11 Nordeste 0 1005 0.5 60
2020-01-11 03:00:00 10.5 5 Nordeste 12 Nordeste 0 1004.6 -0.1 56
2020-01-11 02:00:00 10.2 5 Nordeste 11 Nordeste 0 1004.4 -0.3 61
2020-01-11 01:00:00 10.2 5 Nordeste 13 Este 0 1004.5 0 63
2020-01-11 00:00:00 10.9 5 Nordeste 20 Norte 0 1004.7 0.4 65
2020-01-10 23:00:00 11.1 6 Norte 25 Norte 0 1004.7 0.7 70
2020-01-10 22:00:00 11.7 13 Norte 27 Norte 0 1004.5 0.9 71
2020-01-10 21:00:00 11.9 10 Norte 21 Norte 0 1004.3 0.7 72
2020-01-10 20:00:00 12.3 9 Norte 20 Noroeste 0 1004 0.8 70
2020-01-10 19:00:00 12.7 6 Noroeste 15 Noroeste 0 1003.6 0.6 70
2020-01-10 18:00:00 13.8 4 Noroeste 19 Oeste 0 1003.6 0.4 66
2020-01-10 17:00:00 14.6 9 Oeste 19 Oeste 0 1003.2 -0.5 61
2020-01-10 16:00:00 14.9 6 Noroeste 18 Noroeste 0 1003 -1.5 59
2020-01-10 15:00:00 14.8 8 Oeste 22 Oeste 0 1003.2 -2.5 58
2020-01-10 14:00:00 14 3 Noroeste 13 Noroeste 0 1003.7 -2.1 67
2020-01-10 13:00:00 12.6 4 Noroeste 16 Oeste 0 1004.5 -1 75
2020-01-10 12:00:00 12.1 6 Oeste 12 Oeste 0 1005.7 0.9 77
2020-01-10 11:00:00 11.9 6 Oeste 15 Noroeste 0 1005.8 1.1 79
2020-01-10 10:00:00 10.2 10 Noroeste 24 Noroeste 0 1005.5 0.9 85
2020-01-10 09:00:00 9.5 8 Noroeste 16 Oeste 0 1004.8 0.4 89
2020-01-10 08:00:00 9.8 8 Noroeste 21 Oeste 0 1004.7 0.4 87
2020-01-10 07:00:00 10.9 6 Noroeste 20 Noroeste 0 1004.6 -0.3 89
2020-01-10 06:00:00 10.9 8 Noroeste 20 Oeste 0 1004.4 -0.3 80
2020-01-10 05:00:00 10.7 9 Oeste 20 Oeste 0 1004.3 -0.8 77
2020-01-10 04:00:00 10.2 11 Oeste 17 Oeste 0 1004.9 -0.5 82
2020-01-10 03:00:00 10.3 0 Calma 6 Norte 0 1004.7 -1.3 83
2020-01-10 02:00:00 10.4 0 Calma 7 Nordeste 0 1005.1 -1 84
2020-01-10 01:00:00 11.2 3 Norte 11 Norte 0 1005.4 -0.2 86
2020-01-10 00:00:00 11.4 7 Noroeste 15 Oeste 0 1006 0.1 87
2020-01-09 23:00:00 11.6 11 Oeste 16 Oeste 0 1006.1 0.2 84
2020-01-09 22:00:00 11.9 10 Oeste 15 Oeste 0 1005.6 0 83
2020-01-09 21:00:00 12.4 10 Noroeste 18 Oeste 0 1005.9 1.4 82
2020-01-09 20:00:00 12.6 11 Noroeste 21 Oeste 0 1005.9 1 80
2020-01-09 19:00:00 13.2 9 Oeste 16 Oeste 0 1005.6 1 77
2020-01-09 18:00:00 15.2 9 Sudoeste 15 Sudoeste 0 1004.5 0 66
2020-01-09 17:00:00 16.7 11 Oeste 21 Oeste 0 1004.9 -0.2 61
2020-01-09 16:00:00 18.1 10 Oeste 21 Oeste 0 1004.6 -1.5 56
2020-01-09 15:00:00 17.2 4 Nordeste 16 Este 0 1004.5 -2.3 53
2020-01-09 14:00:00 17.2 5 Este 19 Este 0 1005.1 -1.5 55
2020-01-09 13:00:00 16.5 6 Este 15 Este 0 1006.1 -0.2 58
2020-01-09 12:00:00 15.2 6 Este 14 Este 0 1006.8 1.3 65
2020-01-09 11:00:00 13.5 5 Este 14 Nordeste 0 1006.6 1.4 75
2020-01-09 10:00:00 11.8 7 Este 15 Este 0 1006.3 1.3 79
2020-01-09 09:00:00 10.5 8 Este 15 Este 0 1005.5 0.5 83
2020-01-09 08:00:00 10.8 7 Este 21 Este 0 1005.2 0 82
2020-01-09 07:00:00 10.8 8 Este 18 Este 0 1005 -0.5 83
2020-01-09 06:00:00 10.7 10 Este 18 Este 0 1005 -0.9 85
2020-01-09 05:00:00 10.8 10 Este 18 Este 0 1005.2 -0.8 86
2020-01-09 04:00:00 10.8 9 Este 18 Este 0 1005.5 -0.7 86
2020-01-09 03:00:00 10.8 8 Este 21 Este 0 1005.9 -0.6 87
2020-01-09 02:00:00 11.1 8 Este 25 Este 0 1006 -0.3 86
2020-01-09 01:00:00 11 9 Este 23 Este 0 1006.2 0.1 85
2020-01-09 00:00:00 11.3 10 Este 24 Este 0 1006.5 0.8 84
2020-01-08 23:00:00 11.6 9 Este 19 Este 0 1006.3 0.9 83
2020-01-08 22:00:00 11.6 6 Este 16 Nordeste 0 1006.1 1 83
2020-01-08 21:00:00 12.9 4 Nordeste 6 Nordeste 0 1005.7 0.7 81
2020-01-08 20:00:00 13.5 2 Sudoeste 4 Oeste 0 1005.4 0.5 80
2020-01-08 19:00:00 13.9 4 Oeste 12 Oeste 0 1005.1 0.2 80
2020-01-08 18:00:00 15.9 7 Oeste 12 Oeste 0 1005 -0.2 70
2020-01-08 17:00:00 18 6 Oeste 15 Oeste 0 1004.9 -0.7 61
2020-01-08 16:00:00 19.6 5 Oeste 12 Sudoeste 0 1004.9 -1.4 54
2020-01-08 15:00:00 19.3 6 Oeste 12 Oeste 0 1005.2 -1.7 50
2020-01-08 14:00:00 18.2 4 Oeste 11 Oeste 0 1005.6 -1.4 47
2020-01-08 13:00:00 16.8 2 Oeste 7 Oeste 0 1006.3 -0.2 49
2020-01-08 12:00:00 15.5 3 Oeste 5 Oeste 0 1006.9 0.7 51
2020-01-08 11:00:00 13.5 2 Nordeste 4 Este 0 1007 1.2 64
2020-01-08 10:00:00 11.6 0 Calma 4 Sur 0 1006.5 0.8 74
2020-01-08 09:00:00 10.3 0 Calma 6 Sudeste 0 1006.2 0.5 78
2020-01-08 08:00:00 10.7 0 Calma 4 Nordeste 0 1005.8 -0.1 72
2020-01-08 07:00:00 10.8 3 Este 5 Este 0 1005.7 -0.5 73
2020-01-08 06:00:00 9.9 3 Nordeste 8 Nordeste 0 1005.7 -0.7 84
2020-01-08 05:00:00 10.4 3 Norte 10 Nordeste 0 1005.9 -0.7 83
2020-01-08 04:00:00 10.1 7 Nordeste 14 Este 0 1006.2 -0.9 87
2020-01-08 03:00:00 10.4 8 Nordeste 15 Nordeste 0 1006.4 -1 87
2020-01-08 02:00:00 10.6 9 Nordeste 16 Este 0 1006.6 -0.9 87
2020-01-08 01:00:00 10.9 9 Este 17 Este 0 1007.1 -0.5 86
2020-01-08 00:00:00 10.8 6 Este 21 Este 0 1007.4 -0.3 85
2020-01-07 23:00:00 11.2 10 Este 18 Este 0 1007.5 -0.1 83
2020-01-07 22:00:00 11.6 7 Este 14 Nordeste 0 1007.6 0.3 81
2020-01-07 21:00:00 11.9 8 Este 21 Este 0 1007.7 0.9 80
2020-01-07 20:00:00 12.3 8 Este 21 Este 0 1007.6 1 77
2020-01-07 19:00:00 12.9 7 Este 21 Este 0 1007.3 0.6 76
2020-01-07 18:00:00 14.9 11 Este 22 Este 0 1006.8 0 64
2020-01-07 17:00:00 16.9 12 Este 28 Este 0 1006.6 -0.7 57
2020-01-07 16:00:00 17.1 14 Este 31 Este 0 1006.7 -0.7 50
2020-01-07 15:00:00 17.4 10 Este 26 Este 0 1006.8 -1.9 56
2020-01-07 14:00:00 17 12 Este 34 Este 0 1007.3 -1.6 61
2020-01-07 13:00:00 15.6 13 Este 30 Este 0 1007.4 -0.8 65
2020-01-07 12:00:00 14.9 12 Este 33 Este 0 1008.7 0.9 70
2020-01-07 11:00:00 13.5 15 Este 36 Este 0 1008.9 1.4 75
2020-01-07 10:00:00 11.5 11 Este 22 Este 0 1008.2 1 83
2020-01-07 09:00:00 10 9 Este 20 Este 0 1007.8 0.5 87
2020-01-07 08:00:00 9.9 11 Este 24 Este 0 1007.5 0.5 87
2020-01-07 07:00:00 10 13 Nordeste 24 Este 0 1007.2 -0.2 87
2020-01-07 06:00:00 10 9 Este 24 Nordeste 0 1007.3 0.1 87
2020-01-07 05:00:00 9.9 11 Nordeste 23 Nordeste 0 1007 -0.7 88
2020-01-07 04:00:00 10.1 10 Nordeste 21 Este 0 1007.4 -0.4 87
2020-01-07 03:00:00 10.5 9 Este 21 Este 0 1007.2 -0.8 87
2020-01-07 02:00:00 10.6 8 Nordeste 21 Nordeste 0 1007.7 0.1 86
2020-01-07 01:00:00 10.3 8 Nordeste 20 Nordeste 0 1007.8 0.6 87
2020-01-07 00:00:00 10.6 7 Nordeste 21 Este 0 1008 1 84
2020-01-06 23:00:00 10.8 8 Nordeste 20 Nordeste 0 1007.6 1.2 84
2020-01-06 22:00:00 11.2 8 Este 20 Este 0 1007.2 1.2 81
2020-01-06 21:00:00 11.4 9 Este 19 Este 0 1007 1.4 80
2020-01-06 20:00:00 11.8 8 Este 21 Este 0 1006.4 1.3 75
2020-01-06 19:00:00 12.7 10 Este 27 Este 0 1006 0.7 72
2020-01-06 18:00:00 14.1 12 Este 27 Este 0 1005.6 0.3 65
2020-01-06 17:00:00 15.6 13 Este 28 Este 0 1005.1 -1.1 59
2020-01-06 16:00:00 16.7 9 Este 27 Este 0 1005.3 -1.7 56
2020-01-06 15:00:00 15.9 12 Este 27 Este 0 1005.3 -1.8 58
2020-01-06 14:00:00 15.5 10 Este 27 Este 0 1006.2 -0.7 63
2020-01-06 13:00:00 15.2 10 Este 27 Este 0 1007 0.4 65
2020-01-06 12:00:00 14.9 13 Este 26 Este 0 1007.1 1 69
2020-01-06 11:00:00 13.9 7 Este 22 Este 0 1006.9 1.2 76
2020-01-06 10:00:00 12.2 7 Este 22 Este 0 1006.6 1.7 78